Time;durP1;ratioP1;P1;durP2;ratioP2;P2;SDS_P1;SDS_P2;PMS_P1;PMS_P2;Temp;Humidity;BMP_temperature;BMP_pressure;BME280_temperature;BME280_humidity;BME280_pressure;Samples;Min_cycle;Max_cycle;Signal;HPM_P1;HPM_P2
2022/12/31 00:02:11;;;;;;;11.23;6.75;;;;;;;;;;4967717;28;20026;-88
2022/12/31 00:04:39;;;;;;;9.35;6.32;;;;;;;;;;4969053;28;20078;-86
2022/12/31 00:07:11;;;;;;;9.68;6.07;;;;;;;;;;4971777;28;20049;-87
2022/12/31 00:09:40;;;;;;;11.73;6.20;;;;;;;;;;4981624;28;20413;-86
2022/12/31 00:12:11;;;;;;;12.30;6.47;;;;;;;;;;4968631;28;20032;-86
2022/12/31 00:14:39;;;;;;;11.38;6.50;;;;;;;;;;4972975;28;20078;-86
2022/12/31 00:17:12;;;;;;;10.88;6.43;;;;;;;;;;4973467;28;20465;-87
2022/12/31 00:19:39;;;;;;;9.48;5.55;;;;;;;;;;4957152;28;20051;-86
2022/12/31 00:22:08;;;;;;;9.60;5.82;;;;;;;;;;4974507;28;20034;-85
2022/12/31 00:24:35;;;;;;;9.05;5.90;;;;;;;;;;4969373;28;20053;-87
2022/12/31 00:27:07;;;;;;;9.98;6.55;;;;;;;;;;4970288;28;20066;-87
2022/12/31 00:29:35;;;;;;;10.95;6.57;;;;;;;;;;4972452;28;20141;-87
2022/12/31 00:32:08;;;;;;;11.23;6.88;;;;;;;;;;4946723;28;20077;-87
2022/12/31 00:34:35;;;;;;;11.13;6.18;;;;;;;;;;4972451;28;20047;-87
2022/12/31 00:37:07;;;;;;;10.57;7.25;;;;;;;;;;4974576;28;20043;-87
2022/12/31 00:39:35;;;;;;;9.60;6.65;;;;;;;;;;4971590;28;20039;-87
2022/12/31 00:42:04;;;;;;;12.93;6.28;;;;;;;;;;4965984;28;20034;-87
2022/12/31 00:44:31;;;;;;;10.27;6.60;;;;;;;;;;4971855;28;20133;-87
2022/12/31 00:47:03;;;;;;;9.73;6.28;;;;;;;;;;4969108;28;20062;-87
2022/12/31 00:49:55;;;;;;;12.63;6.30;;;;;;;;;;4970446;28;20045;-87
2022/12/31 00:52:23;;;;;;;13.77;6.65;;;;;;;;;;4971191;28;20035;-88
2022/12/31 00:54:51;;;;;;;9.93;6.10;;;;;;;;;;4968627;28;20126;-87
2022/12/31 00:57:19;;;;;;;12.43;6.30;;;;;;;;;;4983188;28;20043;-87
2022/12/31 00:59:47;;;;;;;13.02;6.95;;;;;;;;;;4967059;28;20027;-88
2022/12/31 01:02:15;;;;;;;8.90;5.85;;;;;;;;;;4972525;28;20035;-88
2022/12/31 01:04:48;;;;;;;10.18;5.97;;;;;;;;;;4971888;28;20448;-88
2022/12/31 01:07:16;;;;;;;10.02;6.22;;;;;;;;;;4972456;28;20053;-88
2022/12/31 01:10:10;;;;;;;12.05;5.82;;;;;;;;;;4968460;28;20039;-88
2022/12/31 01:12:41;;;;;;;10.82;5.38;;;;;;;;;;4967265;28;20039;-88
2022/12/31 01:15:10;;;;;;;9.75;5.80;;;;;;;;;;4970496;28;20090;-87
2022/12/31 01:17:37;;;;;;;8.70;5.60;;;;;;;;;;4966253;28;20045;-88
2022/12/31 01:20:10;;;;;;;9.90;5.60;;;;;;;;;;4969211;28;20043;-88
2022/12/31 01:22:41;;;;;;;9.43;5.53;;;;;;;;;;4970828;28;20039;-88
2022/12/31 01:25:09;;;;;;;9.30;5.50;;;;;;;;;;4973737;28;20077;-87
2022/12/31 01:27:37;;;;;;;8.68;4.70;;;;;;;;;;4986539;28;20047;-87
2022/12/31 01:30:06;;;;;;;7.82;4.65;;;;;;;;;;4971748;28;20057;-88
2022/12/31 01:32:34;;;;;;;9.48;5.38;;;;;;;;;;4960086;28;20050;-87
2022/12/31 01:35:02;;;;;;;8.15;4.55;;;;;;;;;;4974060;28;20041;-88
2022/12/31 01:37:33;;;;;;;10.43;5.18;;;;;;;;;;4971594;28;20497;-88
2022/12/31 01:40:25;;;;;;;8.02;5.03;;;;;;;;;;4969171;28;20041;-88
2022/12/31 01:43:19;;;;;;;9.27;4.82;;;;;;;;;;4967801;28;20042;-88
2022/12/31 01:45:53;;;;;;;10.20;4.32;;;;;;;;;;4966579;28;20039;-88
2022/12/31 01:48:50;;;;;;;7.68;4.53;;;;;;;;;;4969964;28;20053;-88
2022/12/31 01:51:19;;;;;;;10.23;4.70;;;;;;;;;;4957913;28;20042;-88
2022/12/31 01:53:52;;;;;;;7.20;4.35;;;;;;;;;;4970345;28;20098;-87
2022/12/31 01:56:21;;;;;;;8.10;4.78;;;;;;;;;;4972113;28;20528;-88
2022/12/31 01:59:17;;;;;;;8.82;4.97;;;;;;;;;;4976426;28;20054;-88
2022/12/31 02:01:46;;;;;;;9.70;4.93;;;;;;;;;;4970805;28;20486;-88
2022/12/31 02:04:40;;;;;;;8.00;4.43;;;;;;;;;;4966592;28;20042;-87
2022/12/31 02:07:31;;;;;;;6.72;4.15;;;;;;;;;;4989652;28;20047;-87
2022/12/31 02:10:04;;;;;;;7.40;4.90;;;;;;;;;;4973121;28;20105;-88
2022/12/31 02:12:32;;;;;;;7.50;5.07;;;;;;;;;;4973568;28;20047;-88
2022/12/31 02:15:01;;;;;;;7.13;4.82;;;;;;;;;;4969223;28;20038;-88
2022/12/31 02:17:37;;;;;;;8.05;4.60;;;;;;;;;;4969489;28;20081;-87
2022/12/31 02:20:34;;;;;;;8.50;4.47;;;;;;;;;;4955614;28;20054;-87
2022/12/31 02:23:40;;;;;;;7.22;4.38;;;;;;;;;;4965826;28;20039;-87
2022/12/31 02:27:17;;;;;;;6.50;4.05;;;;;;;;;;4956853;28;20448;-87
2022/12/31 02:30:01;;;;;;;9.07;4.68;;;;;;;;;;4918583;29;20063;-87
2022/12/31 02:32:32;;;;;;;10.05;4.38;;;;;;;;;;4926518;29;20071;-87
2022/12/31 02:35:07;;;;;;;7.20;4.40;;;;;;;;;;4926226;29;20601;-87
2022/12/31 02:37:35;;;;;;;8.07;4.28;;;;;;;;;;4926331;29;20086;-87
2022/12/31 02:40:07;;;;;;;6.25;4.05;;;;;;;;;;4918556;29;20044;-88
2022/12/31 02:42:35;;;;;;;9.07;4.50;;;;;;;;;;4914167;29;20070;-88
2022/12/31 02:45:05;;;;;;;7.78;4.13;;;;;;;;;;4916238;29;20040;-88
2022/12/31 02:47:48;;;;;;;6.57;4.03;;;;;;;;;;4927063;29;20048;-88
2022/12/31 02:50:40;;;;;;;7.82;4.43;;;;;;;;;;4927397;29;20083;-88
2022/12/31 02:53:59;;;;;;;8.50;4.43;;;;;;;;;;4926656;29;20590;-88
2022/12/31 02:56:49;;;;;;;7.47;3.72;;;;;;;;;;4892603;29;20052;-88
2022/12/31 03:02:29;;;;;;;6.40;3.47;;;;;;;;;;4897423;29;20040;-88
2022/12/31 03:05:01;;;;;;;10.57;3.72;;;;;;;;;;4895138;29;20122;-88
2022/12/31 03:07:31;;;;;;;6.43;3.58;;;;;;;;;;4930024;29;20048;-88
2022/12/31 03:10:00;;;;;;;5.82;3.55;;;;;;;;;;4918549;29;20063;-88
2022/12/31 03:12:46;;;;;;;6.30;3.30;;;;;;;;;;4933447;29;20526;-88
2022/12/31 03:15:28;;;;;;;6.15;3.58;;;;;;;;;;4918973;29;20087;-87
2022/12/31 03:18:14;;;;;;;7.20;3.28;;;;;;;;;;4931733;29;20054;-88
2022/12/31 03:23:34;;;;;;;6.43;3.30;;;;;;;;;;4933150;29;20063;-88
2022/12/31 03:26:09;;;;;;;7.30;3.53;;;;;;;;;;4926990;29;20394;-88
2022/12/31 03:28:41;;;;;;;5.28;3.28;;;;;;;;;;4934722;29;20586;-87
2022/12/31 03:31:15;;;;;;;5.22;3.50;;;;;;;;;;4968419;28;20501;-88
2022/12/31 03:34:06;;;;;;;5.97;3.10;;;;;;;;;;4971411;28;20035;-87
2022/12/31 03:36:57;;;;;;;4.90;3.00;;;;;;;;;;4975243;28;20074;-88
2022/12/31 03:39:29;;;;;;;5.97;2.88;;;;;;;;;;4984611;28;20039;-88
2022/12/31 03:41:57;;;;;;;7.95;3.38;;;;;;;;;;4971866;28;20098;-88
2022/12/31 03:44:50;;;;;;;5.03;2.88;;;;;;;;;;4983923;28;20038;-88
2022/12/31 03:47:17;;;;;;;5.15;3.00;;;;;;;;;;4987467;28;20126;-88
2022/12/31 03:50:11;;;;;;;5.68;2.75;;;;;;;;;;4969844;28;20133;-88
2022/12/31 03:52:40;;;;;;;5.95;3.30;;;;;;;;;;4968156;28;20070;-88
2022/12/31 03:55:12;;;;;;;5.07;2.83;;;;;;;;;;4973698;28;20042;-88
2022/12/31 03:57:40;;;;;;;7.78;2.72;;;;;;;;;;4973974;28;20038;-88
2022/12/31 04:00:11;;;;;;;4.65;2.63;;;;;;;;;;4968669;28;20038;-88
2022/12/31 04:02:40;;;;;;;5.05;2.60;;;;;;;;;;4973223;28;20042;-88
2022/12/31 04:05:08;;;;;;;5.45;2.92;;;;;;;;;;4969391;28;20043;-88
2022/12/31 04:08:00;;;;;;;5.68;2.85;;;;;;;;;;4971945;28;20039;-88
2022/12/31 04:10:51;;;;;;;5.25;2.85;;;;;;;;;;4972392;28;20517;-88
2022/12/31 04:13:23;;;;;;;5.78;2.92;;;;;;;;;;4971216;28;20031;-88
2022/12/31 04:16:43;;;;;;;8.75;2.80;;;;;;;;;;4970749;28;20050;-88
2022/12/31 04:19:21;;;;;;;4.85;2.75;;;;;;;;;;4970423;28;20111;-88
2022/12/31 04:21:49;;;;;;;6.50;2.97;;;;;;;;;;4966037;28;20039;-87
2022/12/31 04:24:18;;;;;;;8.25;3.47;;;;;;;;;;4951465;28;20378;-87
2022/12/31 04:26:45;;;;;;;7.88;3.90;;;;;;;;;;4970708;28;20094;-88
2022/12/31 04:29:13;;;;;;;7.20;3.25;;;;;;;;;;4968123;28;20097;-88
2022/12/31 04:31:41;;;;;;;7.70;3.60;;;;;;;;;;4971687;28;20040;-88
2022/12/31 04:34:10;;;;;;;7.05;3.67;;;;;;;;;;4970983;28;20070;-88
2022/12/31 04:37:02;;;;;;;8.50;3.60;;;;;;;;;;4972365;28;20093;-88
2022/12/31 04:39:29;;;;;;;8.75;4.70;;;;;;;;;;4984162;28;20059;-88
2022/12/31 04:42:21;;;;;;;5.95;3.80;;;;;;;;;;4970815;28;20039;-88
2022/12/31 04:44:49;;;;;;;7.68;4.43;;;;;;;;;;4970964;28;20401;-88
2022/12/31 04:47:17;;;;;;;5.45;3.55;;;;;;;;;;4982853;28;20035;-88
2022/12/31 04:49:49;;;;;;;8.43;4.40;;;;;;;;;;4984744;28;20130;-88
2022/12/31 04:52:18;;;;;;;5.88;3.50;;;;;;;;;;4971322;28;20478;-88
2022/12/31 04:54:46;;;;;;;7.32;3.85;;;;;;;;;;4972174;28;20105;-88
2022/12/31 04:57:13;;;;;;;11.65;4.70;;;;;;;;;;4967844;28;20067;-88
2022/12/31 05:00:06;;;;;;;6.55;4.05;;;;;;;;;;4972661;28;20058;-88
2022/12/31 05:02:57;;;;;;;5.72;4.00;;;;;;;;;;4982818;28;20037;-88
2022/12/31 05:05:25;;;;;;;7.45;3.90;;;;;;;;;;4968304;28;20038;-88
2022/12/31 05:07:53;;;;;;;7.53;3.90;;;;;;;;;;4970185;28;20046;-88
2022/12/31 05:10:47;;;;;;;5.90;3.20;;;;;;;;;;4969926;28;20104;-88
2022/12/31 05:13:46;;;;;;;5.90;2.92;;;;;;;;;;4966227;28;20619;-87
2022/12/31 05:16:14;;;;;;;5.10;2.90;;;;;;;;;;4953830;28;20058;-88
2022/12/31 05:18:41;;;;;;;7.85;3.20;;;;;;;;;;4971377;28;20046;-87
2022/12/31 05:21:16;;;;;;;4.75;3.08;;;;;;;;;;4969078;28;20073;-88
2022/12/31 05:23:43;;;;;;;4.35;2.65;;;;;;;;;;4973063;28;20046;-87
2022/12/31 05:26:12;;;;;;;4.57;2.55;;;;;;;;;;4969299;28;20394;-88
2022/12/31 05:29:10;;;;;;;4.70;2.53;;;;;;;;;;4967506;28;20038;-88
2022/12/31 05:31:37;;;;;;;4.22;2.38;;;;;;;;;;4970305;28;20066;-87
2022/12/31 05:34:05;;;;;;;5.25;2.45;;;;;;;;;;4964846;28;20043;-88
2022/12/31 05:36:38;;;;;;;5.18;2.13;;;;;;;;;;4969297;28;20089;-87
2022/12/31 05:39:05;;;;;;;4.85;2.15;;;;;;;;;;4973696;28;20101;-88
2022/12/31 05:41:33;;;;;;;3.97;1.98;;;;;;;;;;4969814;28;20051;-87
2022/12/31 05:44:05;;;;;;;4.57;2.25;;;;;;;;;;4969831;28;20126;-88
2022/12/31 05:46:34;;;;;;;8.63;2.40;;;;;;;;;;4984563;28;20050;-88
2022/12/31 05:49:01;;;;;;;6.32;1.88;;;;;;;;;;4984713;28;20049;-88
2022/12/31 05:51:33;;;;;;;3.55;2.10;;;;;;;;;;4969077;28;20039;-88
2022/12/31 05:54:01;;;;;;;8.25;2.22;;;;;;;;;;4955810;28;20057;-88
2022/12/31 05:56:29;;;;;;;4.40;2.10;;;;;;;;;;4971945;28;20046;-87
2022/12/31 05:58:57;;;;;;;5.55;2.38;;;;;;;;;;4967940;28;20443;-88
2022/12/31 06:01:29;;;;;;;5.07;2.75;;;;;;;;;;4980873;28;20125;-88
2022/12/31 06:03:57;;;;;;;5.07;2.20;;;;;;;;;;4968687;28;20053;-87
2022/12/31 06:06:50;;;;;;;3.50;2.15;;;;;;;;;;4970335;28;20035;-88
2022/12/31 06:09:18;;;;;;;6.15;2.20;;;;;;;;;;4964273;28;20121;-88
2022/12/31 06:11:46;;;;;;;4.15;1.90;;;;;;;;;;4967314;28;21011;-87
2022/12/31 06:14:14;;;;;;;3.83;2.03;;;;;;;;;;4984570;28;20031;-87
2022/12/31 06:16:45;;;;;;;3.88;1.98;;;;;;;;;;4977971;28;20067;-86
2022/12/31 06:19:13;;;;;;;2.67;1.83;;;;;;;;;;4967539;28;20067;-88
2022/12/31 06:21:46;;;;;;;4.60;2.10;;;;;;;;;;4963692;28;20050;-87
2022/12/31 06:24:41;;;;;;;3.03;1.80;;;;;;;;;;4969360;28;20031;-87
2022/12/31 06:27:08;;;;;;;3.15;1.80;;;;;;;;;;4982268;28;20058;-87
2022/12/31 06:29:35;;;;;;;3.47;1.90;;;;;;;;;;4983862;28;20109;-87
2022/12/31 06:32:04;;;;;;;4.78;1.90;;;;;;;;;;4969463;28;20098;-88
2022/12/31 06:34:32;;;;;;;3.42;1.75;;;;;;;;;;4968155;28;20046;-88
2022/12/31 06:37:00;;;;;;;5.32;2.00;;;;;;;;;;4971410;28;20062;-88
2022/12/31 06:39:55;;;;;;;3.30;2.25;;;;;;;;;;4971267;28;20033;-88
2022/12/31 06:42:27;;;;;;;3.00;1.50;;;;;;;;;;4968431;28;20394;-88
2022/12/31 06:44:57;;;;;;;3.85;1.35;;;;;;;;;;4965500;28;20047;-88
2022/12/31 06:47:26;;;;;;;2.50;1.45;;;;;;;;;;4966735;28;20045;-88
2022/12/31 06:49:53;;;;;;;3.80;1.80;;;;;;;;;;4965370;28;20035;-88
2022/12/31 06:52:21;;;;;;;2.28;1.15;;;;;;;;;;4969189;28;20035;-88
2022/12/31 06:54:50;;;;;;;2.92;1.30;;;;;;;;;;4967455;28;20043;-88
2022/12/31 06:57:47;;;;;;;3.33;1.25;;;;;;;;;;4967272;28;20054;-88
2022/12/31 07:00:14;;;;;;;2.65;1.20;;;;;;;;;;4967139;28;20051;-88
2022/12/31 07:02:57;;;;;;;3.22;1.20;;;;;;;;;;4968879;28;20043;-88
2022/12/31 07:05:42;;;;;;;2.25;1.10;;;;;;;;;;4972381;28;20122;-88
2022/12/31 07:08:18;;;;;;;2.08;1.15;;;;;;;;;;4973903;28;20126;-88
2022/12/31 07:10:56;;;;;;;2.97;1.80;;;;;;;;;;4962906;28;20489;-88
2022/12/31 07:13:52;;;;;;;4.03;1.10;;;;;;;;;;4983368;28;20046;-88
2022/12/31 07:16:42;;;;;;;2.67;1.30;;;;;;;;;;4971646;28;20047;-88
2022/12/31 07:19:47;;;;;;;2.28;1.17;;;;;;;;;;4969727;28;20070;-88
2022/12/31 07:22:24;;;;;;;2.45;1.45;;;;;;;;;;4985683;28;20037;-88
2022/12/31 07:24:52;;;;;;;2.40;1.08;;;;;;;;;;4984344;28;20043;-87
2022/12/31 07:27:42;;;;;;;2.08;1.17;;;;;;;;;;4966639;28;20038;-88
2022/12/31 07:30:14;;;;;;;2.50;1.30;;;;;;;;;;4967085;28;20409;-88
2022/12/31 07:33:10;;;;;;;2.67;1.10;;;;;;;;;;4970963;28;20046;-87
2022/12/31 07:35:46;;;;;;;3.60;1.00;;;;;;;;;;4966925;28;20138;-87
2022/12/31 07:38:25;;;;;;;3.17;1.20;;;;;;;;;;4963960;28;20073;-88
2022/12/31 07:41:10;;;;;;;5.85;1.30;;;;;;;;;;4965336;28;20409;-88
2022/12/31 07:43:40;;;;;;;2.03;1.15;;;;;;;;;;4983029;28;20054;-88
2022/12/31 07:46:38;;;;;;;2.25;1.17;;;;;;;;;;4970813;28;20062;-88
2022/12/31 07:49:32;;;;;;;5.63;1.50;;;;;;;;;;4968988;28;20050;-88
2022/12/31 07:52:02;;;;;;;4.75;1.70;;;;;;;;;;4969989;28;20059;-88
2022/12/31 07:54:29;;;;;;;3.92;1.80;;;;;;;;;;4969301;28;20031;-88
2022/12/31 07:56:58;;;;;;;4.43;1.70;;;;;;;;;;4970434;28;20063;-88
2022/12/31 07:59:51;;;;;;;2.45;1.27;;;;;;;;;;4968281;28;20036;-88
2022/12/31 08:02:38;;;;;;;4.28;1.52;;;;;;;;;;4962188;28;20051;-88
2022/12/31 08:05:12;;;;;;;5.18;1.80;;;;;;;;;;4953572;28;20047;-88
2022/12/31 08:08:14;;;;;;;4.00;1.40;;;;;;;;;;4967930;28;20075;-88
2022/12/31 08:11:34;;;;;;;2.55;1.38;;;;;;;;;;4964459;28;20043;-88
2022/12/31 08:14:02;;;;;;;6.03;2.10;;;;;;;;;;4905100;29;20132;-88
2022/12/31 08:16:56;;;;;;;6.20;2.33;;;;;;;;;;4925572;29;20111;-88
2022/12/31 08:19:28;;;;;;;7.22;2.80;;;;;;;;;;4936245;29;20047;-88
2022/12/31 08:22:31;;;;;;;7.45;2.42;;;;;;;;;;4937774;29;20048;-87
2022/12/31 08:25:18;;;;;;;4.68;1.70;;;;;;;;;;4936027;29;20053;-88
2022/12/31 08:28:15;;;;;;;2.30;1.13;;;;;;;;;;4936230;29;20035;-88
2022/12/31 08:31:02;;;;;;;5.22;1.30;;;;;;;;;;4937532;29;20574;-87
2022/12/31 08:33:59;;;;;;;3.95;1.70;;;;;;;;;;4920188;29;20993;-87
2022/12/31 08:36:44;;;;;;;3.97;1.75;;;;;;;;;;4939372;29;20085;-87
2022/12/31 08:39:53;;;;;;;5.63;1.92;;;;;;;;;;4941285;29;20055;-87
2022/12/31 08:42:29;;;;;;;12.23;4.55;;;;;;;;;;4941806;29;20078;-87
2022/12/31 08:45:23;;;;;;;6.70;2.78;;;;;;;;;;4924335;29;20078;-87
2022/12/31 08:48:15;;;;;;;5.93;2.85;;;;;;;;;;4941876;29;20566;-87
2022/12/31 08:50:42;;;;;;;6.07;2.40;;;;;;;;;;4965206;28;20055;-87
2022/12/31 08:53:14;;;;;;;3.75;2.00;;;;;;;;;;4970908;28;20035;-87
2022/12/31 08:55:45;;;;;;;3.53;1.98;;;;;;;;;;4976531;28;20043;-88
2022/12/31 08:58:33;;;;;;;4.28;1.88;;;;;;;;;;4972154;28;20049;-88
2022/12/31 09:01:35;;;;;;;3.17;1.50;;;;;;;;;;4974149;28;20409;-88
2022/12/31 09:04:52;;;;;;;2.78;1.67;;;;;;;;;;4971670;28;20031;-88
2022/12/31 09:07:35;;;;;;;3.50;1.55;;;;;;;;;;4987172;28;20464;-88
2022/12/31 09:10:32;;;;;;;3.10;1.52;;;;;;;;;;4975689;28;20517;-88
2022/12/31 09:13:18;;;;;;;3.75;1.65;;;;;;;;;;4971428;28;20031;-88
2022/12/31 09:16:03;;;;;;;3.17;1.48;;;;;;;;;;4973825;28;20045;-88
2022/12/31 09:18:37;;;;;;;3.92;1.80;;;;;;;;;;4978437;28;20046;-88
2022/12/31 09:21:04;;;;;;;5.43;1.80;;;;;;;;;;4970876;28;20141;-88
2022/12/31 09:23:56;;;;;;;3.88;2.00;;;;;;;;;;4981998;28;20042;-88
2022/12/31 09:26:34;;;;;;;3.45;1.65;;;;;;;;;;4969791;28;20066;-88
2022/12/31 09:29:17;;;;;;;4.35;1.65;;;;;;;;;;4989196;28;20039;-88
2022/12/31 09:32:11;;;;;;;4.15;1.98;;;;;;;;;;4987793;28;20062;-88
2022/12/31 09:35:08;;;;;;;6.13;2.28;;;;;;;;;;4976582;28;20050;-88
2022/12/31 09:37:48;;;;;;;6.03;2.40;;;;;;;;;;4970026;28;20035;-87
2022/12/31 09:40:27;;;;;;;6.30;2.47;;;;;;;;;;4968737;28;20070;-88
2022/12/31 09:43:06;;;;;;;5.07;2.60;;;;;;;;;;4972196;28;20046;-88
2022/12/31 09:46:24;;;;;;;5.88;2.88;;;;;;;;;;4979995;28;20047;-88
2022/12/31 09:49:28;;;;;;;7.47;2.90;;;;;;;;;;4916172;29;20199;-88
2022/12/31 09:52:01;;;;;;;6.53;2.90;;;;;;;;;;4885387;29;20066;-87
2022/12/31 09:54:32;;;;;;;4.72;2.75;;;;;;;;;;4895468;29;20132;-88
2022/12/31 09:57:34;;;;;;;7.97;3.67;;;;;;;;;;4903482;29;20119;-88
2022/12/31 10:00:21;;;;;;;5.05;2.92;;;;;;;;;;4916178;29;20107;-87
2022/12/31 10:03:20;;;;;;;8.73;3.00;;;;;;;;;;4883418;29;20052;-88
2022/12/31 10:06:02;;;;;;;4.07;2.47;;;;;;;;;;4899527;29;20084;-88
2022/12/31 10:08:48;;;;;;;4.97;2.50;;;;;;;;;;4904132;29;20051;-88
2022/12/31 10:11:32;;;;;;;5.50;2.58;;;;;;;;;;4902564;29;20036;-88
2022/12/31 10:14:17;;;;;;;4.70;2.80;;;;;;;;;;4897332;29;20104;-88
2022/12/31 10:17:10;;;;;;;5.38;2.30;;;;;;;;;;4916886;29;20054;-88
2022/12/31 10:19:50;;;;;;;5.15;2.50;;;;;;;;;;4913121;29;20522;-88
2022/12/31 10:22:45;;;;;;;6.60;2.60;;;;;;;;;;4916097;29;20052;-88
2022/12/31 10:25:21;;;;;;;3.78;2.28;;;;;;;;;;4906831;28;20058;-88
2022/12/31 10:28:54;;;;;;;4.03;2.38;;;;;;;;;;4969602;28;20054;-88
2022/12/31 10:31:37;;;;;;;5.10;2.40;;;;;;;;;;4971737;28;20039;-88
2022/12/31 10:34:15;;;;;;;5.55;2.90;;;;;;;;;;4955085;28;20066;-88
2022/12/31 10:37:05;;;;;;;5.63;2.20;;;;;;;;;;4969505;28;20086;-88
2022/12/31 10:39:51;;;;;;;5.05;2.13;;;;;;;;;;4967174;28;21616;-88
2022/12/31 10:42:35;;;;;;;6.38;1.95;;;;;;;;;;4970329;28;20061;-88
2022/12/31 10:45:19;;;;;;;2.85;1.52;;;;;;;;;;4970710;28;20065;-88
2022/12/31 10:47:48;;;;;;;4.20;2.20;;;;;;;;;;4958651;28;20077;-88
2022/12/31 10:50:28;;;;;;;4.28;1.75;;;;;;;;;;4958019;28;20580;-88
2022/12/31 10:53:01;;;;;;;2.90;1.60;;;;;;;;;;4958731;28;20061;-88
2022/12/31 10:55:57;;;;;;;3.25;1.50;;;;;;;;;;4957950;28;20035;-88
2022/12/31 10:59:09;;;;;;;3.13;1.50;;;;;;;;;;4960515;28;20067;-88
2022/12/31 11:01:47;;;;;;;4.65;1.98;;;;;;;;;;4959329;28;20142;-88
2022/12/31 11:04:47;;;;;;;3.63;1.80;;;;;;;;;;4942211;28;20430;-88
2022/12/31 11:07:40;;;;;;;2.63;1.25;;;;;;;;;;4959164;28;20051;-88
2022/12/31 11:10:29;;;;;;;2.50;1.20;;;;;;;;;;4962454;28;20058;-88
2022/12/31 11:12:57;;;;;;;3.00;1.50;;;;;;;;;;4973157;28;20043;-88
2022/12/31 11:16:15;;;;;;;2.72;1.50;;;;;;;;;;4959783;28;20031;-88
2022/12/31 11:18:47;;;;;;;2.45;1.35;;;;;;;;;;4961511;28;20066;-88
2022/12/31 11:21:46;;;;;;;2.90;1.20;;;;;;;;;;4972906;28;20044;-88
2022/12/31 11:25:16;;;;;;;3.05;1.50;;;;;;;;;;4959345;28;20061;-88
2022/12/31 11:27:54;;;;;;;3.55;1.50;;;;;;;;;;4965992;28;20053;-87
2022/12/31 11:30:50;;;;;;;2.55;1.38;;;;;;;;;;4964205;28;20129;-88
2022/12/31 11:33:39;;;;;;;2.50;1.15;;;;;;;;;;4963417;28;20043;-88
2022/12/31 11:36:39;;;;;;;3.10;1.50;;;;;;;;;;4948532;28;20061;-88
2022/12/31 11:39:32;;;;;;;3.05;1.20;;;;;;;;;;4963040;28;20058;-88
2022/12/31 11:42:22;;;;;;;2.40;1.30;;;;;;;;;;4960321;28;20051;-88
2022/12/31 11:45:11;;;;;;;2.72;1.23;;;;;;;;;;4973581;28;20074;-88
2022/12/31 11:48:12;;;;;;;3.63;1.52;;;;;;;;;;4958297;28;20035;-88
2022/12/31 11:51:08;;;;;;;4.10;1.50;;;;;;;;;;4976706;28;20461;-88
2022/12/31 11:53:37;;;;;;;2.30;1.20;;;;;;;;;;4961752;28;20079;-88
2022/12/31 11:56:36;;;;;;;2.00;0.98;;;;;;;;;;4966414;28;20160;-87
2022/12/31 11:59:10;;;;;;;5.07;1.60;;;;;;;;;;4980815;28;20418;-88
2022/12/31 12:01:52;;;;;;;2.72;1.30;;;;;;;;;;4983690;28;20135;-88
2022/12/31 12:04:26;;;;;;;3.05;1.67;;;;;;;;;;4947871;28;20135;-88
2022/12/31 12:06:54;;;;;;;2.70;1.45;;;;;;;;;;4970576;28;20051;-88
2022/12/31 12:09:30;;;;;;;3.05;1.50;;;;;;;;;;4981774;28;20034;-89
2022/12/31 12:12:00;;;;;;;2.72;1.52;;;;;;;;;;4971112;28;20137;-89
2022/12/31 12:14:41;;;;;;;2.70;1.30;;;;;;;;;;4967759;28;20055;-89
2022/12/31 12:17:38;;;;;;;5.72;1.60;;;;;;;;;;4970703;28;20043;-88
2022/12/31 12:20:17;;;;;;;3.22;1.27;;;;;;;;;;4965972;28;20310;-88
2022/12/31 12:22:55;;;;;;;2.17;1.30;;;;;;;;;;4987201;28;20043;-88
2022/12/31 12:25:25;;;;;;;2.67;1.40;;;;;;;;;;4969845;28;20370;-88
2022/12/31 12:28:18;;;;;;;2.53;1.48;;;;;;;;;;4970420;28;20050;-89
2022/12/31 12:30:53;;;;;;;4.65;1.60;;;;;;;;;;4974141;28;20046;-89
2022/12/31 12:33:22;;;;;;;4.60;1.13;;;;;;;;;;4971185;28;20047;-88
2022/12/31 12:36:07;;;;;;;2.47;1.25;;;;;;;;;;4966061;28;20054;-89
2022/12/31 12:38:36;;;;;;;3.70;1.70;;;;;;;;;;4968984;28;20489;-89
2022/12/31 12:41:08;;;;;;;2.53;1.20;;;;;;;;;;4969258;28;20158;-90
2022/12/31 12:43:36;;;;;;;5.15;1.40;;;;;;;;;;4970665;28;20035;-89
2022/12/31 12:46:06;;;;;;;4.53;2.20;;;;;;;;;;4953004;28;20494;-89
2022/12/31 12:48:40;;;;;;;2.53;1.65;;;;;;;;;;4975017;28;20051;-89
2022/12/31 12:51:29;;;;;;;2.55;1.42;;;;;;;;;;4973465;28;20035;-88
2022/12/31 12:54:33;;;;;;;2.25;1.40;;;;;;;;;;4976913;28;20039;-89
2022/12/31 12:57:53;;;;;;;4.43;1.20;;;;;;;;;;4976966;28;20497;-89
2022/12/31 13:00:28;;;;;;;2.45;1.40;;;;;;;;;;4961197;28;20039;-89
2022/12/31 13:03:12;;;;;;;3.33;1.30;;;;;;;;;;4966404;28;20053;-89
2022/12/31 13:05:58;;;;;;;4.38;1.52;;;;;;;;;;4974414;28;20070;-89
2022/12/31 13:08:51;;;;;;;3.28;1.50;;;;;;;;;;4968220;28;20043;-89
2022/12/31 13:11:31;;;;;;;3.05;1.35;;;;;;;;;;4967925;28;20041;-89
2022/12/31 13:14:37;;;;;;;6.07;1.80;;;;;;;;;;4968993;28;20534;-90
2022/12/31 13:17:28;;;;;;;3.78;1.23;;;;;;;;;;4969544;28;20038;-89
2022/12/31 13:20:11;;;;;;;4.53;1.30;;;;;;;;;;4964477;28;20095;-88
2022/12/31 13:22:59;;;;;;;3.25;1.20;;;;;;;;;;4965888;28;20568;-88
2022/12/31 13:26:07;;;;;;;2.20;1.20;;;;;;;;;;4965172;28;20482;-88
2022/12/31 13:28:41;;;;;;;3.35;1.40;;;;;;;;;;4965499;28;20039;-88
2022/12/31 13:31:20;;;;;;;2.35;1.50;;;;;;;;;;4964936;28;20098;-88
2022/12/31 13:33:54;;;;;;;2.40;1.40;;;;;;;;;;4962824;28;20122;-88
2022/12/31 13:36:31;;;;;;;3.63;1.42;;;;;;;;;;4961743;28;20042;-88
2022/12/31 13:39:04;;;;;;;4.45;1.60;;;;;;;;;;4950184;28;20098;-88
2022/12/31 13:41:38;;;;;;;3.10;1.40;;;;;;;;;;4962972;28;20039;-88
2022/12/31 13:44:40;;;;;;;4.63;1.40;;;;;;;;;;4965724;28;20051;-88
2022/12/31 13:47:36;;;;;;;3.67;1.52;;;;;;;;;;4961181;28;20049;-88
2022/12/31 13:50:21;;;;;;;2.65;1.27;;;;;;;;;;4962421;28;20466;-88
2022/12/31 13:53:15;;;;;;;2.97;1.40;;;;;;;;;;4960122;28;20043;-88
2022/12/31 13:55:56;;;;;;;3.20;1.70;;;;;;;;;;4973311;28;20053;-89
2022/12/31 13:58:38;;;;;;;2.70;1.50;;;;;;;;;;4963011;28;20046;-88
2022/12/31 14:01:27;;;;;;;3.47;1.48;;;;;;;;;;4973369;28;20548;-88
2022/12/31 14:04:34;;;;;;;4.38;1.50;;;;;;;;;;4959111;28;20122;-87
2022/12/31 14:07:22;;;;;;;2.88;1.40;;;;;;;;;;4964432;28;20039;-88
2022/12/31 14:09:57;;;;;;;2.55;1.27;;;;;;;;;;4967379;28;20047;-88
2022/12/31 14:13:04;;;;;;;4.68;1.50;;;;;;;;;;4982993;28;20089;-88
2022/12/31 14:15:42;;;;;;;2.50;1.33;;;;;;;;;;4965730;28;20031;-87
2022/12/31 14:18:22;;;;;;;2.45;1.30;;;;;;;;;;4966071;28;20047;-87
2022/12/31 14:21:23;;;;;;;3.83;1.60;;;;;;;;;;4967683;28;20066;-87
2022/12/31 14:24:12;;;;;;;3.55;2.10;;;;;;;;;;4976497;28;20111;-89
2022/12/31 14:26:44;;;;;;;5.07;2.35;;;;;;;;;;4965185;28;20051;-89
2022/12/31 14:29:51;;;;;;;5.32;2.40;;;;;;;;;;4954146;28;20398;-89
2022/12/31 14:32:50;;;;;;;3.40;1.80;;;;;;;;;;4958324;28;20034;-89
2022/12/31 14:35:44;;;;;;;6.88;2.08;;;;;;;;;;4989882;28;20027;-87
2022/12/31 14:39:15;;;;;;;4.90;2.58;;;;;;;;;;4993972;28;20035;-86
2022/12/31 14:42:02;;;;;;;5.32;1.98;;;;;;;;;;4954352;29;20035;-88
2022/12/31 14:44:47;;;;;;;5.57;2.10;;;;;;;;;;4947161;29;20043;-88
2022/12/31 14:47:25;;;;;;;4.85;1.90;;;;;;;;;;4934652;29;20075;-87
2022/12/31 14:50:12;;;;;;;6.35;2.60;;;;;;;;;;4936720;29;20105;-88
2022/12/31 14:52:52;;;;;;;5.03;2.35;;;;;;;;;;4924363;29;20051;-88
2022/12/31 14:55:21;;;;;;;4.07;2.20;;;;;;;;;;4937940;29;20047;-87
2022/12/31 14:58:23;;;;;;;3.90;2.40;;;;;;;;;;4917496;29;20068;-87
2022/12/31 15:01:20;;;;;;;4.25;2.30;;;;;;;;;;4936969;29;20051;-88
2022/12/31 15:03:50;;;;;;;7.55;2.95;;;;;;;;;;4929517;29;20066;-87
2022/12/31 15:06:32;;;;;;;5.22;2.40;;;;;;;;;;4933510;29;20153;-87
2022/12/31 15:09:30;;;;;;;8.52;2.60;;;;;;;;;;4949432;29;20043;-88
2022/12/31 15:12:16;;;;;;;6.95;2.60;;;;;;;;;;4962082;28;20051;-87
2022/12/31 15:14:56;;;;;;;5.15;2.53;;;;;;;;;;4978812;28;20135;-87
2022/12/31 15:17:55;;;;;;;6.38;2.72;;;;;;;;;;4976809;28;20538;-87
2022/12/31 15:20:40;;;;;;;7.95;2.72;;;;;;;;;;4966906;28;20062;-87
2022/12/31 15:23:23;;;;;;;5.03;2.78;;;;;;;;;;4971751;28;20086;-90
2022/12/31 15:26:00;;;;;;;6.95;3.05;;;;;;;;;;4975645;28;20051;-90
2022/12/31 15:28:36;;;;;;;6.13;2.78;;;;;;;;;;4972858;28;20039;-88
2022/12/31 15:31:12;;;;;;;5.35;3.08;;;;;;;;;;4979863;28;20039;-90
2022/12/31 15:34:21;;;;;;;5.75;2.83;;;;;;;;;;4974066;28;20041;-89
2022/12/31 15:36:55;;;;;;;6.15;3.10;;;;;;;;;;4987574;28;20043;-90
2022/12/31 15:39:29;;;;;;;15.43;9.13;;;;;;;;;;4971231;28;20039;-90
2022/12/31 15:42:39;;;;;;;10.43;5.60;;;;;;;;;;4972668;28;20078;-90
2022/12/31 15:45:21;;;;;;;9.73;4.82;;;;;;;;;;4975013;28;20035;-89
2022/12/31 15:47:56;;;;;;;13.20;4.90;;;;;;;;;;4958937;28;20066;-89
2022/12/31 15:50:24;;;;;;;8.88;4.35;;;;;;;;;;4971251;28;20093;-89
2022/12/31 15:52:57;;;;;;;9.85;4.20;;;;;;;;;;4955610;28;20774;-88
2022/12/31 15:55:43;;;;;;;8.45;3.70;;;;;;;;;;4964826;28;20039;-89
2022/12/31 15:58:15;;;;;;;9.48;3.58;;;;;;;;;;4961569;28;20071;-88
2022/12/31 16:01:13;;;;;;;8.73;3.90;;;;;;;;;;4962957;28;20042;-88
2022/12/31 16:03:59;;;;;;;8.10;4.32;;;;;;;;;;4965047;28;20039;-88
2022/12/31 16:06:28;;;;;;;10.90;4.45;;;;;;;;;;4965506;28;20069;-88
2022/12/31 16:08:56;;;;;;;9.80;4.63;;;;;;;;;;4971468;28;20371;-89
2022/12/31 16:11:30;;;;;;;7.45;3.83;;;;;;;;;;4974477;28;20035;-88
2022/12/31 16:13:58;;;;;;;7.65;3.92;;;;;;;;;;4968802;28;20488;-88